Time;durP1;ratioP1;P1;durP2;ratioP2;P2;SDS_P1;SDS_P2;PMS_P1;PMS_P2;Temp;Humidity;BMP_temperature;BMP_pressure;BME280_temperature;BME280_humidity;BME280_pressure;Samples;Min_cycle;Max_cycle;Signal;HPM_P1;HPM_P2
2021/07/25 00:01:40;;;;;;;5.00;4.07;;;32.00;53.50;;;;;;5012117;28;20457;-27
2021/07/25 00:04:12;;;;;;;4.07;3.77;;;32.00;54.20;;;;;;5008139;28;20518;-27
2021/07/25 00:06:43;;;;;;;4.93;4.43;;;32.00;54.30;;;;;;5006279;28;20543;-27
2021/07/25 00:09:14;;;;;;;4.50;4.10;;;31.90;54.30;;;;;;5007660;28;20581;-28
2021/07/25 00:11:44;;;;;;;4.10;3.80;;;31.80;54.80;;;;;;5026585;28;20459;-28
2021/07/25 00:14:15;;;;;;;4.83;3.53;;;31.70;55.10;;;;;;5025382;28;20484;-28
2021/07/25 00:16:48;;;;;;;4.07;3.57;;;31.70;56.00;;;;;;5025443;28;21118;-28
2021/07/25 00:19:19;;;;;;;4.60;3.90;;;31.80;55.60;;;;;;5024828;28;20451;-28
2021/07/25 00:21:50;;;;;;;4.47;3.50;;;31.70;55.40;;;;;;5025004;28;20501;-26
2021/07/25 00:24:24;;;;;;;3.63;3.33;;;31.70;55.80;;;;;;5026454;28;20460;-27
2021/07/25 00:26:56;;;;;;;3.17;2.93;;;31.70;55.70;;;;;;5025492;28;20526;-27
2021/07/25 00:29:29;;;;;;;3.50;3.20;;;31.50;55.90;;;;;;5025152;28;20479;-27
2021/07/25 00:32:03;;;;;;;4.17;3.63;;;31.60;55.20;;;;;;5014577;28;20452;-27
2021/07/25 00:34:35;;;;;;;3.30;2.73;;;31.40;57.00;;;;;;5021580;28;20514;-27
2021/07/25 00:37:06;;;;;;;5.00;3.00;;;31.40;57.20;;;;;;5005605;28;20457;-27
2021/07/25 00:39:37;;;;;;;2.87;2.43;;;31.30;57.20;;;;;;5010547;28;20835;-27
2021/07/25 00:42:08;;;;;;;3.20;2.90;;;31.30;57.40;;;;;;5006445;28;20517;-27
2021/07/25 00:44:59;;;;;;;3.83;2.77;;;31.20;57.80;;;;;;5005828;28;20524;-27
2021/07/25 00:47:32;;;;;;;2.50;2.27;;;31.00;58.90;;;;;;5024539;28;21010;-28
2021/07/25 00:50:03;;;;;;;4.17;2.57;;;31.00;59.90;;;;;;5016964;28;20453;-28
2021/07/25 00:52:35;;;;;;;2.57;2.37;;;30.90;59.70;;;;;;5005883;28;20475;-27
2021/07/25 00:55:06;;;;;;;4.30;2.43;;;30.90;60.10;;;;;;5021920;28;21004;-27
2021/07/25 00:57:38;;;;;;;2.50;2.30;;;30.90;60.40;;;;;;5005955;28;20449;-28
2021/07/25 01:00:11;;;;;;;2.77;2.33;;;30.80;60.60;;;;;;5011604;28;20886;-28
2021/07/25 01:03:01;;;;;;;4.60;2.70;;;30.80;60.60;;;;;;5025491;28;20458;-28
2021/07/25 01:05:44;;;;;;;2.83;2.43;;;30.80;61.50;;;;;;5025517;28;20550;-27
2021/07/25 01:08:23;;;;;;;3.10;2.90;;;30.60;62.00;;;;;;5005084;28;20493;-28
2021/07/25 01:10:55;;;;;;;3.20;2.90;;;30.50;63.20;;;;;;5014767;28;20484;-27
2021/07/25 01:13:31;;;;;;;2.60;2.40;;;30.50;62.60;;;;;;5025370;28;20466;-28
2021/07/25 01:16:02;;;;;;;2.40;2.20;;;30.50;63.80;;;;;;5024004;28;20529;-28
2021/07/25 01:18:45;;;;;;;2.43;2.23;;;30.40;63.20;;;;;;5019802;28;20517;-28
2021/07/25 01:21:19;;;;;;;3.07;2.40;;;30.40;63.20;;;;;;5016834;28;20456;-28
2021/07/25 01:23:51;;;;;;;2.90;2.70;;;30.30;63.70;;;;;;5025094;28;20448;-28
2021/07/25 01:26:28;;;;;;;2.37;2.17;;;30.30;63.40;;;;;;5024432;28;20439;-28
2021/07/25 01:29:00;;;;;;;2.37;2.17;;;30.10;64.00;;;;;;5024852;28;20551;-28
2021/07/25 01:31:35;;;;;;;2.30;2.10;;;30.00;63.90;;;;;;5011285;28;20776;-29
2021/07/25 01:34:07;;;;;;;2.80;2.60;;;30.10;64.00;;;;;;5021102;28;20599;-27
2021/07/25 01:36:41;;;;;;;2.30;2.10;;;30.00;63.60;;;;;;5023831;28;20455;-27
2021/07/25 01:39:12;;;;;;;2.77;2.57;;;30.00;63.30;;;;;;5023768;28;20452;-27
2021/07/25 01:41:45;;;;;;;2.63;2.43;;;29.90;62.80;;;;;;5008967;28;20442;-28
2021/07/25 01:44:16;;;;;;;2.50;2.30;;;29.80;63.20;;;;;;5008769;28;20497;-28
2021/07/25 01:46:48;;;;;;;6.40;2.33;;;29.80;63.40;;;;;;5021998;28;20486;-28
2021/07/25 01:49:19;;;;;;;3.13;2.87;;;29.80;63.10;;;;;;5022326;28;20458;-28
2021/07/25 01:51:52;;;;;;;3.10;2.90;;;29.60;62.50;;;;;;5018030;28;20784;-28
2021/07/25 01:54:23;;;;;;;3.10;2.90;;;29.60;63.20;;;;;;5014485;28;20454;-29
2021/07/25 01:56:54;;;;;;;3.03;2.70;;;29.60;63.00;;;;;;5023897;28;20479;-29
2021/07/25 01:59:25;;;;;;;3.00;2.80;;;29.50;62.80;;;;;;5007723;28;20764;-30
2021/07/25 02:01:55;;;;;;;2.50;2.30;;;29.40;62.90;;;;;;5009325;28;20478;-29
2021/07/25 02:04:27;;;;;;;3.13;2.47;;;29.40;62.70;;;;;;5015416;28;20484;-28
2021/07/25 02:06:59;;;;;;;2.60;2.40;;;29.30;62.70;;;;;;5014898;28;20520;-27
2021/07/25 02:09:32;;;;;;;2.40;2.10;;;29.30;62.40;;;;;;5014826;28;20490;-27
2021/07/25 02:12:04;;;;;;;2.40;2.20;;;29.30;62.70;;;;;;5015819;28;20444;-28
2021/07/25 02:14:36;;;;;;;2.13;1.90;;;29.40;63.00;;;;;;5004226;28;20923;-27
2021/07/25 02:17:09;;;;;;;2.60;2.40;;;29.40;62.90;;;;;;5003672;28;20470;-27
2021/07/25 02:19:40;;;;;;;2.13;2.03;;;29.40;63.50;;;;;;5023259;28;20459;-28
2021/07/25 02:22:12;;;;;;;2.30;2.10;;;29.30;63.50;;;;;;5018701;28;20475;-27
2021/07/25 02:24:43;;;;;;;3.20;2.23;;;29.30;63.60;;;;;;5016810;28;20469;-27
2021/07/25 02:27:14;;;;;;;2.63;2.40;;;29.30;63.80;;;;;;5020967;28;20477;-27
2021/07/25 02:29:45;;;;;;;2.73;2.23;;;29.20;62.70;;;;;;5023113;28;20965;-27
2021/07/25 02:32:19;;;;;;;4.30;2.37;;;29.10;63.80;;;;;;5004153;28;20566;-27
2021/07/25 02:34:51;;;;;;;2.23;2.03;;;29.10;63.90;;;;;;5019487;28;20541;-28
2021/07/25 02:37:23;;;;;;;3.10;2.43;;;29.00;64.50;;;;;;5018017;28;20458;-27
2021/07/25 02:39:54;;;;;;;2.23;1.80;;;28.90;65.20;;;;;;5017343;28;20581;-27
2021/07/25 02:42:25;;;;;;;2.30;2.10;;;28.80;64.80;;;;;;5022643;28;20450;-28
2021/07/25 02:44:57;;;;;;;2.53;2.33;;;28.80;65.30;;;;;;5019829;28;20941;-28
2021/07/25 02:47:28;;;;;;;2.60;2.40;;;28.80;65.70;;;;;;5016421;28;20490;-28
2021/07/25 02:49:58;;;;;;;2.50;2.30;;;28.80;66.70;;;;;;5015773;28;20452;-28
2021/07/25 02:52:31;;;;;;;8.07;2.63;;;28.70;66.80;;;;;;5022747;28;20446;-27
2021/07/25 02:55:02;;;;;;;2.57;2.20;;;28.70;66.70;;;;;;5023263;28;20483;-28
2021/07/25 02:57:33;;;;;;;2.43;2.23;;;28.60;67.30;;;;;;5019847;28;20443;-28
2021/07/25 03:00:05;;;;;;;2.27;2.07;;;28.60;68.00;;;;;;5015612;28;20457;-28
2021/07/25 03:02:37;;;;;;;3.67;2.97;;;28.50;68.30;;;;;;5026335;28;20450;-28
2021/07/25 03:05:09;;;;;;;3.27;2.67;;;28.40;68.50;;;;;;5011698;28;20828;-27
2021/07/25 03:07:42;;;;;;;3.20;2.50;;;28.40;69.30;;;;;;5002886;28;20549;-27
2021/07/25 03:10:13;;;;;;;2.40;2.20;;;28.30;70.00;;;;;;5022171;28;20458;-27
2021/07/25 03:12:44;;;;;;;2.93;2.63;;;28.30;70.00;;;;;;5005100;28;20474;-27
2021/07/25 03:15:15;;;;;;;2.87;2.27;;;28.20;70.50;;;;;;5003983;28;20476;-27
2021/07/25 03:17:46;;;;;;;2.47;2.27;;;28.10;71.70;;;;;;5009363;28;20461;-27
2021/07/25 03:20:18;;;;;;;3.50;2.50;;;28.00;72.30;;;;;;5008323;28;20550;-27
2021/07/25 03:22:53;;;;;;;3.00;2.73;;;27.90;73.30;;;;;;5022544;28;20490;-27
2021/07/25 03:25:24;;;;;;;3.10;2.57;;;27.80;73.70;;;;;;5026568;28;20461;-27
2021/07/25 03:27:55;;;;;;;2.40;2.20;;;27.70;73.70;;;;;;5026554;28;20504;-28
2021/07/25 03:30:26;;;;;;;2.27;2.07;;;27.70;74.20;;;;;;5013606;28;20449;-27
2021/07/25 03:32:57;;;;;;;2.10;2.00;;;27.60;74.40;;;;;;5021699;28;20571;-28
2021/07/25 03:35:28;;;;;;;2.67;2.47;;;27.40;75.40;;;;;;5007855;28;20470;-28
2021/07/25 03:38:01;;;;;;;2.20;2.00;;;27.30;75.90;;;;;;5006940;28;20455;-28
2021/07/25 03:40:32;;;;;;;3.30;2.50;;;27.30;75.70;;;;;;5018119;28;22071;-28
2021/07/25 03:43:22;;;;;;;2.30;2.10;;;27.30;76.20;;;;;;5027114;28;20471;-28
2021/07/25 03:45:54;;;;;;;2.67;1.93;;;27.10;77.40;;;;;;5017268;28;20526;-27
2021/07/25 03:48:25;;;;;;;2.13;1.93;;;26.90;77.10;;;;;;5011488;28;20491;-27
2021/07/25 03:50:57;;;;;;;2.40;2.20;;;26.90;77.60;;;;;;5022795;28;20450;-27
2021/07/25 03:53:29;;;;;;;2.50;2.30;;;26.80;78.20;;;;;;5011109;28;20454;-27
2021/07/25 03:56:00;;;;;;;1.83;1.73;;;26.70;78.60;;;;;;5015019;28;20484;-28
2021/07/25 03:58:31;;;;;;;2.10;2.00;;;26.50;78.70;;;;;;5020144;28;20455;-28
2021/07/25 04:01:02;;;;;;;2.70;2.47;;;26.50;78.60;;;;;;5009507;28;20482;-27
2021/07/25 04:03:33;;;;;;;1.80;1.70;;;26.30;79.80;;;;;;5026192;28;20452;-27
2021/07/25 04:06:04;;;;;;;2.13;1.90;;;26.30;79.50;;;;;;5013842;28;20479;-27
2021/07/25 04:08:37;;;;;;;2.77;2.20;;;26.10;80.20;;;;;;5006816;28;20492;-27
2021/07/25 04:11:08;;;;;;;2.10;1.90;;;26.00;80.80;;;;;;5022867;28;20458;-28
2021/07/25 04:13:38;;;;;;;2.10;1.90;;;25.90;80.50;;;;;;5013100;28;20481;-27
2021/07/25 04:16:09;;;;;;;2.13;1.87;;;25.90;80.40;;;;;;5013863;28;20486;-26
2021/07/25 04:18:40;;;;;;;2.10;1.90;;;25.90;80.70;;;;;;5006530;28;20483;-27
2021/07/25 04:21:11;;;;;;;2.03;1.83;;;25.80;81.50;;;;;;5006065;28;20469;-27
2021/07/25 04:23:44;;;;;;;2.07;1.70;;;25.60;82.10;;;;;;5006957;28;20561;-27
2021/07/25 04:26:16;;;;;;;2.30;2.10;;;25.60;82.30;;;;;;5007584;28;20486;-27
2021/07/25 04:28:47;;;;;;;1.67;1.57;;;25.50;82.40;;;;;;5006939;28;20490;-27
2021/07/25 04:31:18;;;;;;;2.57;2.00;;;25.40;82.80;;;;;;5015625;28;20478;-28
2021/07/25 04:33:52;;;;;;;2.17;1.97;;;25.30;83.00;;;;;;5021924;28;20463;-28
2021/07/25 04:36:27;;;;;;;2.20;1.80;;;25.30;83.50;;;;;;5006764;28;20451;-28
2021/07/25 04:39:03;;;;;;;2.27;2.07;;;25.20;84.20;;;;;;5023521;28;20512;-28
2021/07/25 04:41:38;;;;;;;2.03;1.70;;;25.00;84.60;;;;;;5025461;28;20465;-28
2021/07/25 04:44:18;;;;;;;2.00;1.90;;;25.00;85.10;;;;;;5006096;28;20485;-28
2021/07/25 04:46:53;;;;;;;2.60;2.40;;;25.00;84.60;;;;;;5011549;28;20510;-28
2021/07/25 04:49:32;;;;;;;2.97;1.90;;;24.90;84.60;;;;;;5024914;28;20649;-28
2021/07/25 04:52:04;;;;;;;1.67;1.57;;;25.00;84.60;;;;;;5011151;28;20455;-29
2021/07/25 04:54:40;;;;;;;2.37;2.17;;;24.90;85.30;;;;;;5018863;28;20461;-28
2021/07/25 04:57:15;;;;;;;1.90;1.80;;;24.80;85.20;;;;;;5015687;28;20946;-29
2021/07/25 04:59:49;;;;;;;2.40;1.83;;;24.80;85.80;;;;;;5023597;28;20474;-28
2021/07/25 05:02:24;;;;;;;3.67;2.20;;;24.60;86.20;;;;;;5013033;28;20499;-28
2021/07/25 05:04:56;;;;;;;1.90;1.80;;;24.50;87.10;;;;;;5012903;28;20471;-28
2021/07/25 05:07:27;;;;;;;1.80;1.60;;;24.50;87.00;;;;;;5020670;28;20540;-28
2021/07/25 05:10:00;;;;;;;2.57;2.37;;;24.40;88.20;;;;;;5024882;28;20517;-28
2021/07/25 05:12:35;;;;;;;1.90;1.70;;;24.30;88.80;;;;;;5022337;28;20474;-28
2021/07/25 05:15:08;;;;;;;1.80;1.70;;;24.20;89.50;;;;;;5016247;28;20507;-28
2021/07/25 05:17:45;;;;;;;1.80;1.70;;;24.20;89.50;;;;;;5008181;28;20417;-28
2021/07/25 05:20:17;;;;;;;1.77;1.53;;;24.10;90.00;;;;;;5008606;28;20450;-28
2021/07/25 05:22:55;;;;;;;1.80;1.70;;;24.10;90.20;;;;;;5010635;28;20455;-27
2021/07/25 05:25:32;;;;;;;1.97;1.77;;;24.00;90.60;;;;;;5021449;28;20426;-28
2021/07/25 05:28:07;;;;;;;1.70;1.60;;;23.90;90.50;;;;;;5024600;28;20454;-28
2021/07/25 05:30:41;;;;;;;1.50;1.40;;;23.90;90.80;;;;;;5026127;28;20524;-28
2021/07/25 05:33:13;;;;;;;1.40;1.30;;;23.90;90.90;;;;;;5016379;28;20474;-27
2021/07/25 05:35:45;;;;;;;2.20;1.70;;;23.80;91.40;;;;;;5020035;28;20464;-28
2021/07/25 05:38:17;;;;;;;1.77;1.67;;;23.80;91.50;;;;;;5022481;28;20441;-28
2021/07/25 05:40:50;;;;;;;2.43;1.70;;;23.70;91.90;;;;;;5013225;28;20425;-28
2021/07/25 05:43:21;;;;;;;2.93;1.70;;;23.60;92.30;;;;;;5024576;28;20448;-28
2021/07/25 05:45:52;;;;;;;2.03;1.80;;;23.50;92.40;;;;;;5023600;28;20997;-28
2021/07/25 05:48:23;;;;;;;4.20;2.00;;;23.50;92.60;;;;;;5010056;28;20479;-28
2021/07/25 05:50:54;;;;;;;1.83;1.73;;;23.40;92.80;;;;;;5012425;28;20428;-28
2021/07/25 05:53:25;;;;;;;2.40;1.80;;;23.50;92.80;;;;;;5024254;28;20433;-28
2021/07/25 05:55:58;;;;;;;2.73;1.77;;;23.40;93.10;;;;;;5016454;28;20425;-28
2021/07/25 05:58:31;;;;;;;2.07;1.53;;;23.30;93.30;;;;;;5014249;28;20459;-28
2021/07/25 06:01:02;;;;;;;2.43;1.57;;;23.30;93.60;;;;;;5013833;28;20479;-28
2021/07/25 06:03:33;;;;;;;1.83;1.73;;;23.20;93.90;;;;;;5013612;28;20446;-28
2021/07/25 06:06:09;;;;;;;2.27;1.93;;;23.10;94.10;;;;;;5018635;28;20519;-28
2021/07/25 06:08:40;;;;;;;2.40;1.90;;;23.10;94.70;;;;;;5017926;28;20434;-28
2021/07/25 06:11:12;;;;;;;2.07;1.50;;;23.00;95.10;;;;;;5008390;28;20510;-28
2021/07/25 06:13:43;;;;;;;1.90;1.60;;;22.90;95.50;;;;;;5016357;28;20490;-28
2021/07/25 06:16:14;;;;;;;1.50;1.40;;;22.80;96.30;;;;;;5009577;28;20533;-28
2021/07/25 06:18:47;;;;;;;2.03;1.77;;;22.70;96.90;;;;;;5021137;28;20430;-28
2021/07/25 06:21:19;;;;;;;1.80;1.63;;;22.60;97.20;;;;;;5007843;28;20507;-28
2021/07/25 06:23:52;;;;;;;2.00;1.67;;;22.60;97.80;;;;;;5008392;28;20459;-28
2021/07/25 06:26:25;;;;;;;1.57;1.47;;;22.60;98.50;;;;;;5013172;28;20655;-29
2021/07/25 06:28:56;;;;;;;1.40;1.30;;;22.50;99.00;;;;;;5015985;28;20500;-28
2021/07/25 06:31:28;;;;;;;2.07;1.87;;;22.40;99.80;;;;;;5015678;28;20519;-27
2021/07/25 06:34:04;;;;;;;3.13;2.03;;;22.50;99.90;;;;;;5007924;28;20768;-28
2021/07/25 06:36:36;;;;;;;2.10;1.87;;;22.50;99.90;;;;;;5005479;28;20451;-28
2021/07/25 06:39:08;;;;;;;2.30;1.77;;;22.40;99.90;;;;;;5018182;28;20483;-28
2021/07/25 06:41:41;;;;;;;2.13;1.77;;;22.30;99.90;;;;;;5019593;28;20433;-28
2021/07/25 06:44:13;;;;;;;2.47;2.27;;;22.20;99.90;;;;;;5009668;28;20456;-28
2021/07/25 06:46:44;;;;;;;1.90;1.50;;;22.20;99.90;;;;;;5018212;28;20462;-28
2021/07/25 06:49:15;;;;;;;2.00;1.80;;;22.20;99.90;;;;;;5011730;28;20505;-28
2021/07/25 06:51:46;;;;;;;1.73;1.63;;;22.10;99.90;;;;;;5020154;28;20460;-28
2021/07/25 06:54:16;;;;;;;1.87;1.67;;;22.10;99.90;;;;;;5023540;28;20477;-28
2021/07/25 06:56:49;;;;;;;2.10;1.83;;;22.00;99.90;;;;;;5019716;28;20429;-28
2021/07/25 06:59:20;;;;;;;2.77;1.57;;;21.90;99.90;;;;;;5018405;28;20477;-28
2021/07/25 07:01:51;;;;;;;2.03;1.70;;;21.80;99.90;;;;;;5022577;28;20458;-28
2021/07/25 07:04:22;;;;;;;2.23;1.73;;;21.80;99.90;;;;;;5006820;28;20435;-28
2021/07/25 07:06:53;;;;;;;2.27;1.90;;;21.70;99.90;;;;;;5022954;28;20442;-28
2021/07/25 07:09:24;;;;;;;1.93;1.47;;;21.70;99.90;;;;;;5008211;28;20429;-28
2021/07/25 07:11:59;;;;;;;2.00;1.90;;;21.60;99.90;;;;;;5022384;28;20460;-28
2021/07/25 07:14:30;;;;;;;2.03;1.93;;;21.60;99.90;;;;;;5023435;28;20478;-29
2021/07/25 07:17:01;;;;;;;2.83;1.90;;;21.60;99.90;;;;;;5018564;28;20816;-30
2021/07/25 07:19:32;;;;;;;1.70;1.50;;;21.50;99.90;;;;;;5004197;28;20498;-28
2021/07/25 07:22:03;;;;;;;1.63;1.50;;;21.50;99.90;;;;;;5020713;28;20446;-28
2021/07/25 07:24:34;;;;;;;1.90;1.70;;;21.40;99.90;;;;;;5018090;28;20473;-28
2021/07/25 07:27:07;;;;;;;1.60;1.50;;;21.40;99.90;;;;;;5015471;28;20454;-28
2021/07/25 07:29:38;;;;;;;1.70;1.60;;;21.30;99.90;;;;;;5004989;28;20425;-28
2021/07/25 07:32:10;;;;;;;2.73;1.77;;;21.30;99.90;;;;;;5021942;28;20520;-28
2021/07/25 07:34:41;;;;;;;2.30;2.10;;;21.30;99.90;;;;;;5006625;28;20430;-28
2021/07/25 07:37:12;;;;;;;1.60;1.50;;;21.30;99.90;;;;;;5022364;28;20481;-28
2021/07/25 07:39:44;;;;;;;2.07;1.73;;;21.20;99.90;;;;;;5017054;28;20422;-28
2021/07/25 07:42:17;;;;;;;2.07;1.30;;;21.20;99.90;;;;;;5012219;28;20451;-28
2021/07/25 07:44:49;;;;;;;2.10;1.90;;;21.10;99.90;;;;;;5008599;28;20452;-28
2021/07/25 07:47:22;;;;;;;2.00;1.50;;;21.00;99.90;;;;;;5023003;28;20470;-28
2021/07/25 07:49:54;;;;;;;2.20;1.60;;;20.90;99.90;;;;;;5005124;28;20485;-28
2021/07/25 07:52:25;;;;;;;1.60;1.40;;;20.80;99.90;;;;;;5003707;28;20451;-28
2021/07/25 07:54:58;;;;;;;1.40;1.30;;;20.80;99.90;;;;;;5018422;28;20440;-28
2021/07/25 07:57:50;;;;;;;2.27;1.50;;;20.80;99.90;;;;;;5021879;28;20465;-28
2021/07/25 08:00:22;;;;;;;2.33;1.63;;;20.70;99.90;;;;;;5021056;28;20447;-28
2021/07/25 08:02:53;;;;;;;1.60;1.50;;;20.70;99.90;;;;;;5018489;28;20988;-28
2021/07/25 08:05:24;;;;;;;1.33;1.23;;;20.70;99.90;;;;;;5006707;28;20470;-28
2021/07/25 08:07:55;;;;;;;1.93;1.30;;;20.60;99.90;;;;;;5017575;28;20430;-28
2021/07/25 08:10:26;;;;;;;1.20;1.10;;;20.60;99.90;;;;;;5013605;28;20485;-28
2021/07/25 08:12:59;;;;;;;1.30;1.20;;;20.50;99.90;;;;;;5013452;28;20951;-28
2021/07/25 08:15:30;;;;;;;1.53;1.43;;;20.50;99.90;;;;;;5022425;28;20573;-27
2021/07/25 08:18:01;;;;;;;1.83;1.67;;;20.40;99.90;;;;;;5007024;28;20463;-28
2021/07/25 08:20:32;;;;;;;1.67;1.57;;;20.30;99.90;;;;;;5015815;28;20493;-28
2021/07/25 08:23:03;;;;;;;1.40;1.23;;;20.30;99.90;;;;;;5025694;28;20436;-28
2021/07/25 08:25:34;;;;;;;1.73;1.57;;;20.30;99.90;;;;;;5025712;28;20458;-28
2021/07/25 08:28:07;;;;;;;1.63;1.30;;;20.30;99.90;;;;;;5026263;28;21002;-27
2021/07/25 08:30:38;;;;;;;1.87;1.60;;;20.30;99.90;;;;;;5022198;28;20845;-27
2021/07/25 08:33:09;;;;;;;1.27;1.07;;;20.30;99.90;;;;;;5026070;28;20872;-27
2021/07/25 08:35:40;;;;;;;1.50;1.40;;;20.30;99.90;;;;;;5013904;28;20439;-27
2021/07/25 08:38:11;;;;;;;1.87;1.47;;;20.20;99.90;;;;;;5006288;28;20429;-27
2021/07/25 08:40:44;;;;;;;1.10;1.00;;;20.20;99.90;;;;;;5013232;28;20489;-27
2021/07/25 08:43:21;;;;;;;1.63;1.53;;;20.10;99.90;;;;;;5012368;28;20593;-28
2021/07/25 08:45:55;;;;;;;1.50;1.40;;;20.10;99.90;;;;;;5020829;28;20537;-28
2021/07/25 08:48:32;;;;;;;2.10;1.40;;;20.10;99.90;;;;;;5018568;28;20426;-27
2021/07/25 08:51:05;;;;;;;2.30;1.20;;;20.00;99.90;;;;;;5014397;28;20539;-27
2021/07/25 08:53:37;;;;;;;1.50;1.23;;;20.00;99.90;;;;;;5020261;28;20564;-27
2021/07/25 08:56:11;;;;;;;1.30;1.20;;;19.90;99.90;;;;;;5022791;28;20433;-27
2021/07/25 08:58:48;;;;;;;1.63;1.27;;;19.90;99.90;;;;;;5025024;28;20435;-27
2021/07/25 09:01:20;;;;;;;1.30;1.20;;;19.90;99.90;;;;;;5024987;28;20478;-27
2021/07/25 09:03:52;;;;;;;1.83;1.53;;;19.90;99.90;;;;;;5025038;28;20481;-28
2021/07/25 09:06:23;;;;;;;2.57;1.77;;;19.80;99.90;;;;;;5011891;28;20439;-27
2021/07/25 09:08:55;;;;;;;2.10;1.57;;;19.70;99.90;;;;;;5025158;28;20507;-27
2021/07/25 09:11:26;;;;;;;1.30;1.20;;;19.70;99.90;;;;;;5021906;28;20488;-27
2021/07/25 09:13:59;;;;;;;2.47;1.60;;;19.60;99.90;;;;;;5024228;28;20455;-27
2021/07/25 09:16:33;;;;;;;1.40;1.30;;;19.60;99.90;;;;;;5022110;28;20425;-27
2021/07/25 09:19:05;;;;;;;1.13;1.03;;;19.60;99.90;;;;;;5025210;28;20908;-27
2021/07/25 09:21:41;;;;;;;1.10;0.83;;;19.50;99.90;;;;;;5011192;28;20498;-27
2021/07/25 09:24:31;;;;;;;2.10;1.30;;;19.50;99.90;;;;;;5005622;28;20447;-27
2021/07/25 09:27:04;;;;;;;1.20;1.00;;;19.60;99.90;;;;;;5022225;28;20537;-27
2021/07/25 09:29:38;;;;;;;2.50;1.53;;;19.40;99.90;;;;;;5015706;28;20483;-28
2021/07/25 09:32:13;;;;;;;3.23;1.27;;;19.40;99.90;;;;;;5009002;28;20513;-27
2021/07/25 09:34:45;;;;;;;1.53;1.40;;;19.40;99.90;;;;;;5005390;28;20527;-28
2021/07/25 09:37:18;;;;;;;1.63;1.00;;;19.40;99.90;;;;;;5011755;28;20466;-28
2021/07/25 09:39:52;;;;;;;1.67;1.30;;;19.40;99.90;;;;;;5005785;28;20450;-27
2021/07/25 09:42:29;;;;;;;1.00;0.80;;;19.30;99.90;;;;;;5021748;28;20479;-28
2021/07/25 09:45:04;;;;;;;1.57;1.20;;;19.30;99.90;;;;;;5023945;28;20561;-27
2021/07/25 09:47:35;;;;;;;1.47;1.37;;;19.20;99.90;;;;;;5009384;28;20454;-28
2021/07/25 09:50:08;;;;;;;1.57;1.47;;;19.20;99.90;;;;;;5022135;28;20450;-28
2021/07/25 09:52:40;;;;;;;1.67;1.23;;;19.20;99.90;;;;;;5004013;28;20518;-28
2021/07/25 09:55:12;;;;;;;2.13;1.53;;;19.10;99.90;;;;;;5019871;28;20446;-27
2021/07/25 09:57:55;;;;;;;2.53;1.50;;;19.00;99.90;;;;;;5021296;28;20462;-27
2021/07/25 10:00:40;;;;;;;1.20;1.10;;;18.90;99.90;;;;;;5005891;28;20743;-27
2021/07/25 10:03:32;;;;;;;1.50;1.37;;;18.90;99.90;;;;;;5023619;28;20642;-28
2021/07/25 10:06:22;;;;;;;1.60;1.50;;;18.80;99.90;;;;;;5019130;28;20451;-27
2021/07/25 10:09:11;;;;;;;2.17;1.50;;;18.70;99.90;;;;;;5004552;28;20954;-28
2021/07/25 10:11:45;;;;;;;1.23;1.13;;;18.60;99.90;;;;;;5006107;28;20520;-27
2021/07/25 10:14:19;;;;;;;2.73;1.23;;;18.60;99.90;;;;;;5009813;28;20475;-27
2021/07/25 10:16:56;;;;;;;2.43;1.43;;;18.60;99.90;;;;;;5004482;28;20482;-28
2021/07/25 10:19:34;;;;;;;1.70;1.50;;;18.70;99.90;;;;;;5004771;28;20442;-27
2021/07/25 10:22:09;;;;;;;2.20;1.47;;;18.60;99.90;;;;;;5022469;28;20506;-27
2021/07/25 10:24:41;;;;;;;1.90;1.30;;;18.50;99.90;;;;;;5023523;28;20446;-27
2021/07/25 10:27:12;;;;;;;1.53;1.20;;;18.40;99.90;;;;;;5016512;28;20842;-27
2021/07/25 10:29:44;;;;;;;1.40;1.30;;;18.50;99.90;;;;;;5022867;28;20454;-27
2021/07/25 10:32:20;;;;;;;1.67;1.43;;;18.40;99.90;;;;;;5023236;28;20494;-27
2021/07/25 10:34:52;;;;;;;1.40;1.30;;;18.40;99.90;;;;;;5016167;28;20457;-27
2021/07/25 10:37:23;;;;;;;1.53;1.30;;;18.30;99.90;;;;;;5017927;28;20445;-28
2021/07/25 10:39:56;;;;;;;2.37;1.30;;;18.30;99.90;;;;;;5021136;28;20612;-27
2021/07/25 10:42:29;;;;;;;1.57;1.47;;;18.20;99.90;;;;;;5006108;28;20454;-27
2021/07/25 10:45:38;;;;;;;1.57;1.33;;;18.20;99.90;;;;;;5004271;28;20502;-27
2021/07/25 10:48:30;;;;;;;1.30;1.20;;;18.20;99.90;;;;;;5010281;28;20490;-26
2021/07/25 10:51:12;;;;;;;1.63;1.23;;;18.20;99.90;;;;;;5017466;28;20459;-27
2021/07/25 10:53:43;;;;;;;1.40;1.00;;;18.20;99.90;;;;;;5021116;28;20473;-27
2021/07/25 10:56:14;;;;;;;1.97;1.47;;;18.20;99.90;;;;;;5022003;28;21033;-27
2021/07/25 10:58:55;;;;;;;2.13;1.80;;;18.10;99.90;;;;;;5022505;28;20534;-27
2021/07/25 11:01:44;;;;;;;1.40;1.30;;;18.10;99.90;;;;;;5013185;28;20458;-27
2021/07/25 11:04:55;;;;;;;2.03;1.20;;;18.10;99.90;;;;;;5003462;28;20455;-27
2021/07/25 11:07:38;;;;;;;1.53;1.20;;;18.00;99.90;;;;;;5009963;28;20460;-27
2021/07/25 11:10:11;;;;;;;1.17;1.07;;;17.90;99.90;;;;;;5023348;28;20446;-27
2021/07/25 11:13:18;;;;;;;1.97;1.47;;;18.00;99.90;;;;;;5022659;28;20986;-27
2021/07/25 11:15:50;;;;;;;1.33;1.23;;;17.90;99.90;;;;;;5014537;28;20429;-27
2021/07/25 11:18:34;;;;;;;1.27;1.13;;;17.80;99.90;;;;;;5018350;28;20461;-27
2021/07/25 11:21:07;;;;;;;2.00;1.80;;;17.90;99.90;;;;;;5009485;28;20465;-27
2021/07/25 11:23:40;;;;;;;1.30;1.20;;;17.80;99.90;;;;;;5022950;28;20557;-28
2021/07/25 11:26:43;;;;;;;1.40;1.30;;;17.80;99.90;;;;;;5016481;28;20477;-28
2021/07/25 11:29:19;;;;;;;1.30;1.23;;;17.80;99.90;;;;;;4941730;29;20449;-28
2021/07/25 11:31:51;;;;;;;1.87;1.50;;;17.80;99.90;;;;;;4935862;29;20493;-28
2021/07/25 11:34:28;;;;;;;1.97;1.10;;;17.80;99.90;;;;;;4924194;29;20877;-26
2021/07/25 11:37:02;;;;;;;1.63;1.30;;;17.70;99.90;;;;;;4930477;29;20475;-27
2021/07/25 11:39:35;;;;;;;1.80;1.50;;;17.70;99.90;;;;;;4933902;29;20481;-27
2021/07/25 11:42:08;;;;;;;1.30;1.20;;;17.60;99.90;;;;;;4933894;29;20474;-28
2021/07/25 11:44:42;;;;;;;1.50;1.40;;;17.50;99.90;;;;;;4942967;29;20627;-26
2021/07/25 11:47:13;;;;;;;1.73;1.63;;;17.50;99.90;;;;;;4945873;29;20445;-27
2021/07/25 11:49:44;;;;;;;1.40;1.27;;;17.50;99.90;;;;;;4946057;29;20541;-27
2021/07/25 11:52:17;;;;;;;1.97;1.60;;;17.50;99.90;;;;;;4932957;29;20617;-27
2021/07/25 11:54:49;;;;;;;2.37;1.30;;;17.50;99.90;;;;;;4946501;29;20472;-27
2021/07/25 11:57:24;;;;;;;1.40;1.30;;;17.40;99.90;;;;;;4943492;29;20450;-27
2021/07/25 11:59:58;;;;;;;1.80;1.60;;;17.50;99.90;;;;;;4976088;28;20453;-27
2021/07/25 12:02:31;;;;;;;1.17;1.00;;;17.30;99.90;;;;;;5024978;28;20443;-27
2021/07/25 12:05:03;;;;;;;1.20;1.10;;;17.30;99.90;;;;;;5026098;28;20450;-27
2021/07/25 12:07:55;;;;;;;1.13;1.00;;;17.30;99.90;;;;;;5024982;28;20464;-27
2021/07/25 12:10:34;;;;;;;2.30;1.10;;;17.30;99.90;;;;;;5019856;28;20450;-27
2021/07/25 12:13:05;;;;;;;2.00;1.23;;;17.30;99.90;;;;;;5025277;28;20493;-27
2021/07/25 12:15:38;;;;;;;1.30;1.20;;;17.30;99.90;;;;;;5024456;28;20446;-27
2021/07/25 12:18:09;;;;;;;1.47;1.37;;;17.30;99.90;;;;;;5010612;28;20518;-27
2021/07/25 12:20:40;;;;;;;1.20;1.10;;;17.30;99.90;;;;;;5023669;28;20482;-27
2021/07/25 12:23:13;;;;;;;2.10;1.50;;;17.30;99.90;;;;;;5024211;28;20457;-27
2021/07/25 12:25:53;;;;;;;1.47;1.37;;;17.30;99.90;;;;;;5025102;28;20482;-27
2021/07/25 12:28:25;;;;;;;1.37;1.27;;;17.30;99.90;;;;;;5023867;28;20528;-27
2021/07/25 12:30:57;;;;;;;1.50;1.40;;;17.30;99.90;;;;;;5024148;28;20454;-28
2021/07/25 12:33:31;;;;;;;1.57;1.47;;;17.20;99.90;;;;;;5009490;28;20505;-28
2021/07/25 12:36:11;;;;;;;1.60;1.07;;;17.30;99.90;;;;;;5013124;28;20554;-27
2021/07/25 12:38:44;;;;;;;1.67;1.53;;;17.20;99.90;;;;;;5015230;28;20461;-27
2021/07/25 12:41:15;;;;;;;1.73;1.50;;;17.30;99.90;;;;;;5018491;28;20462;-27
2021/07/25 12:44:06;;;;;;;1.63;1.53;;;17.20;99.90;;;;;;5025089;28;20494;-27
2021/07/25 12:46:45;;;;;;;1.53;1.43;;;17.20;99.90;;;;;;5017944;28;20458;-27
2021/07/25 12:49:16;;;;;;;2.23;1.70;;;17.20;99.90;;;;;;5008221;28;20451;-27
2021/07/25 12:51:48;;;;;;;1.63;1.40;;;17.20;99.90;;;;;;5024960;28;20477;-26
2021/07/25 12:54:20;;;;;;;1.53;1.30;;;17.20;99.90;;;;;;5025783;28;20577;-27
2021/07/25 12:56:54;;;;;;;2.00;1.50;;;17.10;99.90;;;;;;5023164;28;20526;-27
2021/07/25 12:59:24;;;;;;;1.33;1.23;;;17.10;99.90;;;;;;5023209;28;20575;-27
2021/07/25 13:04:28;;;;;;;1.93;1.73;;;17.00;99.90;;;;;;5019152;28;20486;-27
2021/07/25 13:06:59;;;;;;;1.53;1.43;;;17.00;99.90;;;;;;5018187;28;20445;-27
2021/07/25 13:09:31;;;;;;;1.70;1.30;;;17.10;99.90;;;;;;5015149;28;21179;-27
2021/07/25 13:12:02;;;;;;;1.87;1.37;;;17.00;99.90;;;;;;5022782;28;20454;-27
2021/07/25 13:14:34;;;;;;;1.70;1.50;;;17.10;99.90;;;;;;5007847;28;20560;-27
2021/07/25 13:17:05;;;;;;;1.37;1.27;;;17.10;99.90;;;;;;5005169;28;20550;-27
2021/07/25 13:19:37;;;;;;;1.67;1.57;;;17.10;99.90;;;;;;5010458;28;20478;-28
2021/07/25 13:22:08;;;;;;;2.00;1.80;;;17.10;99.90;;;;;;5006158;28;20470;-28
2021/07/25 13:24:41;;;;;;;1.87;1.70;;;17.10;99.90;;;;;;5011269;28;20465;-27